Time;durP1;ratioP1;P1;durP2;ratioP2;P2;SDS_P1;SDS_P2;PMS_P1;PMS_P2;Temp;Humidity;BMP_temperature;BMP_pressure;BME280_temperature;BME280_humidity;BME280_pressure;Samples;Min_cycle;Max_cycle;Signal;HPM_P1;HPM_P2
2022/01/26 00:00:20;;;;;;;125.32;51.22;;;;;;;;;;2117393;27;20047;-49
2022/01/26 00:06:41;;;;;;;107.85;46.70;;;;;;;;;;2121518;28;20129;-48
2022/01/26 00:07:42;;;;;;;95.07;42.05;;;;;;;;;;2123192;28;20126;-47
2022/01/26 00:08:43;;;;;;;105.93;46.37;;;;;;;;;;2121008;27;20117;-46
2022/01/26 00:09:44;;;;;;;113.38;47.78;;;;;;;;;;2123040;28;20535;-47
2022/01/26 00:10:45;;;;;;;113.57;46.87;;;;;;;;;;2122831;28;20096;-46
2022/01/26 00:11:47;;;;;;;120.75;51.28;;;;;;;;;;2120243;27;20093;-46
2022/01/26 00:12:48;;;;;;;125.60;51.33;;;;;;;;;;2122983;28;20124;-47
2022/01/26 00:13:49;;;;;;;79.27;40.23;;;;;;;;;;2123218;27;20051;-46
2022/01/26 00:14:50;;;;;;;94.63;41.97;;;;;;;;;;2115973;28;20177;-47
2022/01/26 00:15:52;;;;;;;110.93;47.30;;;;;;;;;;2114336;28;20043;-47
2022/01/26 00:16:54;;;;;;;114.72;50.17;;;;;;;;;;2116519;27;20051;-48
2022/01/26 00:17:56;;;;;;;126.55;51.42;;;;;;;;;;2121716;28;20134;-47
2022/01/26 00:19:00;;;;;;;93.25;39.42;;;;;;;;;;2123312;28;20118;-49
2022/01/26 00:20:10;;;;;;;101.95;45.25;;;;;;;;;;2119693;27;20119;-50
2022/01/26 00:21:17;;;;;;;114.22;46.22;;;;;;;;;;2122721;28;20147;-49
2022/01/26 00:22:37;;;;;;;113.13;48.60;;;;;;;;;;2123235;27;20551;-49
2022/01/26 00:24:04;;;;;;;122.05;50.80;;;;;;;;;;2121150;28;20515;-50
2022/01/26 00:25:21;;;;;;;104.03;40.47;;;;;;;;;;2122363;27;20073;-50
2022/01/26 00:26:29;;;;;;;112.85;43.13;;;;;;;;;;2115167;28;20135;-50
2022/01/26 00:27:43;;;;;;;106.47;46.35;;;;;;;;;;2114347;28;20178;-49
2022/01/26 00:29:07;;;;;;;98.88;43.33;;;;;;;;;;2118108;27;20075;-49
2022/01/26 00:34:18;;;;;;;96.88;37.83;;;;;;;;;;2122874;28;20153;-50
2022/01/26 00:38:35;;;;;;;107.90;39.58;;;;;;;;;;2114593;28;20130;-50
2022/01/26 00:39:36;;;;;;;93.47;41.72;;;;;;;;;;2116644;27;20537;-49
2022/01/26 00:40:41;;;;;;;121.78;46.80;;;;;;;;;;2121378;28;20047;-50
2022/01/26 00:41:44;;;;;;;90.82;38.03;;;;;;;;;;2123085;28;20076;-46
2022/01/26 00:42:49;;;;;;;112.78;46.33;;;;;;;;;;2120936;27;20125;-46
2022/01/26 00:43:54;;;;;;;123.28;50.95;;;;;;;;;;2122664;28;20204;-47
2022/01/26 00:44:55;;;;;;;111.45;47.13;;;;;;;;;;2122247;27;20039;-46
2022/01/26 00:45:58;;;;;;;106.15;44.47;;;;;;;;;;2118977;28;20495;-47
2022/01/26 00:47:00;;;;;;;100.60;43.15;;;;;;;;;;2122545;28;20393;-47
2022/01/26 00:48:03;;;;;;;106.93;44.53;;;;;;;;;;2121234;27;20503;-47
2022/01/26 00:49:04;;;;;;;112.63;44.50;;;;;;;;;;2120482;28;20134;-47
2022/01/26 00:50:10;;;;;;;112.72;46.83;;;;;;;;;;2122832;28;20071;-46
2022/01/26 00:51:14;;;;;;;110.70;43.67;;;;;;;;;;2118099;27;20090;-46
2022/01/26 00:52:25;;;;;;;125.82;49.17;;;;;;;;;;2122751;28;20138;-46
2022/01/26 00:53:32;;;;;;;118.97;45.50;;;;;;;;;;2120844;27;20133;-47
2022/01/26 00:54:34;;;;;;;107.15;43.40;;;;;;;;;;2119833;28;20173;-46
2022/01/26 00:55:36;;;;;;;112.50;45.22;;;;;;;;;;2122556;28;20043;-46
2022/01/26 00:56:36;;;;;;;98.82;39.05;;;;;;;;;;2120160;27;20075;-46
2022/01/26 00:57:38;;;;;;;127.45;49.65;;;;;;;;;;2121032;28;20393;-47
2022/01/26 00:58:39;;;;;;;140.18;52.38;;;;;;;;;;2122752;28;20138;-47
2022/01/26 00:59:41;;;;;;;115.20;46.30;;;;;;;;;;2116713;27;20096;-46
2022/01/26 01:00:41;;;;;;;128.25;49.13;;;;;;;;;;2122616;28;20520;-47
2022/01/26 01:01:45;;;;;;;147.48;52.53;;;;;;;;;;2114786;28;20050;-46
2022/01/26 01:02:46;;;;;;;138.75;54.80;;;;;;;;;;2119428;27;20039;-47
2022/01/26 01:03:48;;;;;;;147.90;56.35;;;;;;;;;;2122584;28;20058;-46
2022/01/26 01:04:49;;;;;;;149.35;55.15;;;;;;;;;;2121767;27;20122;-49
2022/01/26 01:05:55;;;;;;;150.98;53.92;;;;;;;;;;2119358;28;20043;-48
2022/01/26 01:07:00;;;;;;;154.93;52.50;;;;;;;;;;2122593;28;20483;-50
2022/01/26 01:08:05;;;;;;;144.93;54.05;;;;;;;;;;2120676;27;20105;-49
2022/01/26 01:09:06;;;;;;;142.57;54.72;;;;;;;;;;2122148;28;20126;-49
2022/01/26 01:10:07;;;;;;;151.02;53.45;;;;;;;;;;2122734;28;20089;-50
2022/01/26 01:11:09;;;;;;;138.60;48.90;;;;;;;;;;2118226;27;20079;-50
2022/01/26 01:12:10;;;;;;;118.90;48.47;;;;;;;;;;2114201;28;20359;-49
2022/01/26 01:13:16;;;;;;;111.70;46.60;;;;;;;;;;2114971;27;20087;-49
2022/01/26 01:14:18;;;;;;;133.52;52.60;;;;;;;;;;2115505;28;20075;-49
2022/01/26 01:15:19;;;;;;;148.88;54.53;;;;;;;;;;2114214;28;20077;-47
2022/01/26 01:16:22;;;;;;;130.02;48.38;;;;;;;;;;2115929;27;20079;-47
2022/01/26 01:17:26;;;;;;;151.02;56.85;;;;;;;;;;2113902;28;20436;-46
2022/01/26 01:18:35;;;;;;;150.13;56.17;;;;;;;;;;2113981;28;20047;-46
2022/01/26 01:19:37;;;;;;;122.70;49.85;;;;;;;;;;2118159;27;20185;-46
2022/01/26 01:21:03;;;;;;;;;;;;;;;;;;2114416;28;20067;-46
2022/01/26 01:22:36;;;;;;;105.97;38.05;;;;;;;;;;2116212;27;20006;-47
2022/01/26 01:26:47;;;;;;;115.70;43.30;;;;;;;;;;2087063;28;20319;-46
2022/01/26 01:28:11;;;;;;;84.93;33.92;;;;;;;;;;2116556;27;20519;-48
2022/01/26 01:29:18;;;;;;;105.93;38.03;;;;;;;;;;2113981;28;20135;-47
2022/01/26 01:30:29;;;;;;;123.82;48.72;;;;;;;;;;2116022;27;20082;-46
2022/01/26 01:31:41;;;;;;;120.45;45.88;;;;;;;;;;2119414;28;20122;-46
2022/01/26 01:32:52;;;;;;;116.78;44.83;;;;;;;;;;2122527;28;20519;-47
2022/01/26 01:33:53;;;;;;;129.68;49.03;;;;;;;;;;2119340;27;20177;-46
2022/01/26 01:34:54;;;;;;;124.20;46.38;;;;;;;;;;2122505;28;20579;-46
2022/01/26 01:35:58;;;;;;;136.13;52.33;;;;;;;;;;2123133;27;20043;-47
2022/01/26 01:37:03;;;;;;;115.45;48.13;;;;;;;;;;2118993;28;20488;-46
2022/01/26 01:38:10;;;;;;;119.38;44.92;;;;;;;;;;2122527;28;20130;-47
2022/01/26 01:39:10;;;;;;;113.70;42.72;;;;;;;;;;2117769;27;20130;-47
2022/01/26 01:40:12;;;;;;;130.27;52.10;;;;;;;;;;2113979;28;20075;-46
2022/01/26 01:41:13;;;;;;;132.95;53.60;;;;;;;;;;2114028;28;20108;-46
2022/01/26 01:42:15;;;;;;;129.80;50.28;;;;;;;;;;2117527;27;20043;-47
2022/01/26 01:43:17;;;;;;;138.20;52.65;;;;;;;;;;2122243;28;20118;-46
2022/01/26 01:44:18;;;;;;;122.30;47.47;;;;;;;;;;2122067;27;20074;-47
2022/01/26 01:45:29;;;;;;;121.10;49.47;;;;;;;;;;2120543;27;20055;-46
2022/01/26 01:46:31;;;;;;;114.57;46.72;;;;;;;;;;2123916;28;20043;-47
2022/01/26 01:47:32;;;;;;;131.13;52.67;;;;;;;;;;2122240;27;20122;-46
2022/01/26 01:48:34;;;;;;;128.43;51.92;;;;;;;;;;2121447;28;20555;-47
2022/01/26 01:49:35;;;;;;;130.02;50.63;;;;;;;;;;2123886;28;20072;-46
2022/01/26 01:50:37;;;;;;;140.73;52.60;;;;;;;;;;2120537;27;20077;-46
2022/01/26 01:51:42;;;;;;;;;;;;;;;;;;2115763;28;20085;-46
2022/01/26 01:52:42;;;;;;;128.95;44.47;;;;;;;;;;2115098;28;19986;-47
2022/01/26 01:53:44;;;;;;;131.67;51.37;;;;;;;;;;2117374;27;20515;-46
2022/01/26 01:54:51;;;;;;;;;;;;;;;;;;2124414;28;20119;-47
2022/01/26 01:55:52;;;;;;;103.90;38.95;;;;;;;;;;2123687;27;19962;-46
2022/01/26 01:56:56;;;;;;;136.70;53.03;;;;;;;;;;2120998;28;20131;-47
2022/01/26 01:57:57;;;;;;;117.22;45.63;;;;;;;;;;2123893;28;20185;-46
2022/01/26 01:58:58;;;;;;;140.38;55.55;;;;;;;;;;2122036;27;20088;-46
2022/01/26 02:00:00;;;;;;;117.93;46.00;;;;;;;;;;2122522;28;20131;-47
2022/01/26 02:01:02;;;;;;;125.97;49.10;;;;;;;;;;2122027;28;20073;-46
2022/01/26 02:02:04;;;;;;;135.18;53.45;;;;;;;;;;2118619;27;20494;-46
2022/01/26 02:03:05;;;;;;;;;;;;;;;;;;2124211;28;20043;-46
2022/01/26 02:04:07;;;;;;;93.85;37.35;;;;;;;;;;2123968;28;19919;-46
2022/01/26 02:05:08;;;;;;;;;;;;;;;;;;2122611;27;20094;-46
2022/01/26 02:06:09;;;;;;;91.90;31.63;;;;;;;;;;2123716;28;19919;-46
2022/01/26 02:07:11;;;;;;;126.88;48.40;;;;;;;;;;2123705;27;20134;-46
2022/01/26 02:08:12;;;;;;;113.43;45.53;;;;;;;;;;2116143;28;20126;-46
2022/01/26 02:09:13;;;;;;;133.55;48.40;;;;;;;;;;2115266;28;20567;-47
2022/01/26 02:10:14;;;;;;;136.68;49.03;;;;;;;;;;2117838;27;20039;-49
2022/01/26 02:11:16;;;;;;;130.52;47.97;;;;;;;;;;2122421;28;20047;-50
2022/01/26 02:12:20;;;;;;;146.73;52.67;;;;;;;;;;2123651;28;20161;-49
2022/01/26 02:13:25;;;;;;;139.63;49.60;;;;;;;;;;2119000;27;20044;-49
2022/01/26 02:14:31;;;;;;;132.45;50.33;;;;;;;;;;2115190;28;20075;-50
2022/01/26 02:15:39;;;;;;;131.80;50.65;;;;;;;;;;2114929;27;20075;-49
2022/01/26 02:16:48;;;;;;;112.47;42.67;;;;;;;;;;2120401;28;20138;-49
2022/01/26 02:20:43;;;;;;;128.55;50.15;;;;;;;;;;2121849;28;20179;-49
2022/01/26 02:49:54;;;;;;;131.63;53.83;;;;;;;;;;2114387;27;20134;-47
2022/01/26 02:53:50;;;;;;;138.13;51.75;;;;;;;;;;2120909;28;20559;-48
2022/01/26 02:55:08;;;;;;;135.75;49.33;;;;;;;;;;2123342;28;20177;-47
2022/01/26 02:56:17;;;;;;;124.10;48.53;;;;;;;;;;2120337;27;20412;-46
2022/01/26 02:57:49;;;;;;;131.20;51.22;;;;;;;;;;2123156;28;20130;-47
2022/01/26 03:00:19;;;;;;;130.32;48.75;;;;;;;;;;2115021;28;20079;-47
2022/01/26 03:02:48;;;;;;;129.63;48.15;;;;;;;;;;2111204;28;20138;-46
2022/01/26 03:03:57;;;;;;;127.75;48.53;;;;;;;;;;2117276;27;20043;-47
2022/01/26 03:05:01;;;;;;;126.35;49.85;;;;;;;;;;2115897;28;20075;-47
2022/01/26 03:06:03;;;;;;;113.50;49.25;;;;;;;;;;2114898;28;20058;-47
2022/01/26 03:07:10;;;;;;;;;;;;;;;;;;2118270;27;20046;-46
2022/01/26 03:08:12;;;;;;;113.35;39.90;;;;;;;;;;2114917;28;19967;-46
2022/01/26 03:09:16;;;;;;;104.53;43.28;;;;;;;;;;2114827;28;20465;-48
2022/01/26 03:10:22;;;;;;;117.82;46.35;;;;;;;;;;2117981;28;20078;-46
2022/01/26 03:11:27;;;;;;;135.50;52.92;;;;;;;;;;2123395;28;20201;-46
2022/01/26 03:12:35;;;;;;;127.40;49.22;;;;;;;;;;2120751;27;20139;-47
2022/01/26 03:13:41;;;;;;;125.95;49.38;;;;;;;;;;2122097;28;20070;-47
2022/01/26 03:14:48;;;;;;;116.00;47.10;;;;;;;;;;2123369;28;20135;-47
2022/01/26 03:15:53;;;;;;;115.97;47.45;;;;;;;;;;2116244;27;20146;-47
2022/01/26 03:16:59;;;;;;;125.60;47.75;;;;;;;;;;2120816;28;20047;-48
2022/01/26 03:18:22;;;;;;;99.78;43.40;;;;;;;;;;2123441;27;20088;-46
2022/01/26 03:19:32;;;;;;;117.15;47.63;;;;;;;;;;2114669;28;20078;-47
2022/01/26 03:20:34;;;;;;;116.50;46.63;;;;;;;;;;2114939;28;20048;-47
2022/01/26 03:21:44;;;;;;;122.07;53.72;;;;;;;;;;2117701;27;20084;-46
2022/01/26 03:28:18;;;;;;;123.20;44.75;;;;;;;;;;2114835;28;20131;-47
2022/01/26 03:29:39;;;;;;;123.38;46.65;;;;;;;;;;2114176;27;20056;-47
2022/01/26 03:31:05;;;;;;;117.47;43.53;;;;;;;;;;2121750;28;20134;-48
2022/01/26 03:34:00;;;;;;;111.13;43.20;;;;;;;;;;2105137;28;20078;-46
2022/01/26 03:35:01;;;;;;;111.60;45.17;;;;;;;;;;2115838;27;20048;-47
2022/01/26 03:36:10;;;;;;;105.40;43.50;;;;;;;;;;2120431;28;20043;-47
2022/01/26 03:37:13;;;;;;;115.45;46.80;;;;;;;;;;2123268;28;20074;-47
2022/01/26 03:38:17;;;;;;;112.00;47.33;;;;;;;;;;2121328;27;20039;-47
2022/01/26 03:39:21;;;;;;;110.53;45.00;;;;;;;;;;2114599;28;20149;-46
2022/01/26 03:40:30;;;;;;;113.25;50.00;;;;;;;;;;2114763;28;20131;-46
2022/01/26 03:41:38;;;;;;;111.15;42.63;;;;;;;;;;2118300;28;20066;-47
2022/01/26 03:42:39;;;;;;;113.22;46.88;;;;;;;;;;2123046;28;20066;-48
2022/01/26 03:43:40;;;;;;;107.20;43.22;;;;;;;;;;2120394;27;20448;-47
2022/01/26 03:44:42;;;;;;;100.23;42.23;;;;;;;;;;2121498;28;20046;-47
2022/01/26 03:45:43;;;;;;;;;;;;;;;;;;2115441;28;20361;-47
2022/01/26 03:46:45;;;;;;;101.95;36.70;;;;;;;;;;2117518;27;19919;-46
2022/01/26 03:47:46;;;;;;;;;;;;;;;;;;2123174;28;20039;-47
2022/01/26 03:48:47;;;;;;;104.22;38.85;;;;;;;;;;2123074;28;19919;-47
2022/01/26 03:49:48;;;;;;;108.65;41.05;;;;;;;;;;2120089;27;20100;-45
2022/01/26 03:50:49;;;;;;;102.65;40.58;;;;;;;;;;2123003;28;20610;-46
2022/01/26 03:51:51;;;;;;;105.97;42.45;;;;;;;;;;2123242;27;20062;-50
2022/01/26 03:52:52;;;;;;;99.22;45.30;;;;;;;;;;2119647;27;20135;-49
2022/01/26 03:53:53;;;;;;;107.73;43.60;;;;;;;;;;2123225;28;20511;-49
2022/01/26 03:54:55;;;;;;;130.20;49.50;;;;;;;;;;2121308;27;20159;-50
2022/01/26 03:55:56;;;;;;;111.53;49.50;;;;;;;;;;2115300;28;20043;-49
2022/01/26 03:56:57;;;;;;;106.27;44.73;;;;;;;;;;2114699;28;20055;-50
2022/01/26 03:57:58;;;;;;;109.80;40.70;;;;;;;;;;2117094;27;20445;-50
2022/01/26 03:58:59;;;;;;;109.25;43.53;;;;;;;;;;2115036;28;20054;-49
2022/01/26 04:00:00;;;;;;;121.57;54.88;;;;;;;;;;2114479;28;20484;-49
2022/01/26 04:01:02;;;;;;;106.82;41.53;;;;;;;;;;2115569;27;20054;-50
2022/01/26 04:02:04;;;;;;;94.45;42.28;;;;;;;;;;2123009;28;20047;-50
2022/01/26 04:03:05;;;;;;;109.50;45.38;;;;;;;;;;2123018;28;20050;-50
2022/01/26 04:04:06;;;;;;;108.15;46.47;;;;;;;;;;2119830;27;20047;-49
2022/01/26 04:05:11;;;;;;;;;;;;;;;;;;2123785;28;20289;-47
2022/01/26 04:06:12;;;;;;;89.10;38.28;;;;;;;;;;2122883;27;20032;-47
2022/01/26 04:07:13;;;;;;;92.22;40.05;;;;;;;;;;2115215;28;20131;-46
2022/01/26 04:08:19;;;;;;;103.65;50.83;;;;;;;;;;2114073;28;20047;-47
2022/01/26 04:09:21;;;;;;;91.80;39.40;;;;;;;;;;2117257;27;20039;-48
2022/01/26 04:10:33;;;;;;;91.43;38.55;;;;;;;;;;2114517;28;20047;-48
2022/01/26 04:11:37;;;;;;;94.45;42.17;;;;;;;;;;2114513;28;20169;-46
2022/01/26 04:12:39;;;;;;;114.13;52.45;;;;;;;;;;2118857;28;20128;-47
2022/01/26 04:13:40;;;;;;;;;;;;;;;;;;2123361;28;20496;-47
2022/01/26 04:14:44;;;;;;;81.25;34.65;;;;;;;;;;2120882;27;19964;-47
2022/01/26 04:15:45;;;;;;;99.90;43.53;;;;;;;;;;2117406;28;20131;-46
2022/01/26 04:16:47;;;;;;;107.18;44.63;;;;;;;;;;2114498;28;20059;-47
2022/01/26 04:17:48;;;;;;;100.22;45.67;;;;;;;;;;2117948;27;20528;-47
2022/01/26 04:18:49;;;;;;;92.53;39.92;;;;;;;;;;2121550;28;20073;-47
2022/01/26 04:19:55;;;;;;;114.00;49.72;;;;;;;;;;2122900;28;20146;-46
2022/01/26 04:21:01;;;;;;;98.18;44.85;;;;;;;;;;2117093;27;20137;-46
2022/01/26 04:22:13;;;;;;;106.82;43.97;;;;;;;;;;2123008;28;20071;-46
2022/01/26 04:23:19;;;;;;;88.47;42.97;;;;;;;;;;2122499;27;20078;-47
2022/01/26 04:24:24;;;;;;;105.07;43.13;;;;;;;;;;2115694;28;20044;-47
2022/01/26 04:25:26;;;;;;;106.63;52.65;;;;;;;;;;2114580;28;20126;-47
2022/01/26 04:26:32;;;;;;;107.50;46.15;;;;;;;;;;2117129;27;20136;-46
2022/01/26 04:27:38;;;;;;;106.72;50.28;;;;;;;;;;2114390;28;20040;-47
2022/01/26 04:28:43;;;;;;;109.80;43.80;;;;;;;;;;2114100;27;20082;-47
2022/01/26 04:29:46;;;;;;;98.57;42.67;;;;;;;;;;2118775;28;20132;-47
2022/01/26 04:30:48;;;;;;;106.30;49.85;;;;;;;;;;2122848;28;20074;-48
2022/01/26 04:31:49;;;;;;;85.32;40.17;;;;;;;;;;2121639;27;20046;-47
2022/01/26 04:32:50;;;;;;;104.15;48.40;;;;;;;;;;2115609;28;20087;-47
2022/01/26 04:33:52;;;;;;;90.53;43.15;;;;;;;;;;2114296;28;20067;-47
2022/01/26 04:34:53;;;;;;;103.18;44.67;;;;;;;;;;2118298;27;20137;-46
2022/01/26 04:35:54;;;;;;;112.40;53.17;;;;;;;;;;2122121;28;20131;-47
2022/01/26 04:37:01;;;;;;;95.93;43.00;;;;;;;;;;2122833;28;20436;-48
2022/01/26 04:38:14;;;;;;;113.50;52.72;;;;;;;;;;2119661;27;20047;-47
2022/01/26 04:39:20;;;;;;;94.85;41.25;;;;;;;;;;2123085;28;20074;-49
2022/01/26 04:40:21;;;;;;;113.18;48.25;;;;;;;;;;2121281;27;20129;-50
2022/01/26 04:41:32;;;;;;;112.97;54.83;;;;;;;;;;2118333;28;20055;-49
2022/01/26 04:42:42;;;;;;;116.18;43.50;;;;;;;;;;2114324;28;20128;-50
2022/01/26 04:43:46;;;;;;;93.32;43.05;;;;;;;;;;2119229;27;20122;-49
2022/01/26 04:44:53;;;;;;;93.60;42.38;;;;;;;;;;2122805;28;20047;-51
2022/01/26 04:45:54;;;;;;;107.88;46.28;;;;;;;;;;2119432;27;20541;-50
2022/01/26 04:46:55;;;;;;;100.72;46.88;;;;;;;;;;2120097;28;20453;-50
2022/01/26 04:47:56;;;;;;;109.35;51.35;;;;;;;;;;2122790;28;20559;-51
2022/01/26 04:48:58;;;;;;;97.18;41.97;;;;;;;;;;2120920;27;20228;-49
2022/01/26 04:49:58;;;;;;;99.38;41.75;;;;;;;;;;2121389;28;20074;-52
2022/01/26 04:51:00;;;;;;;103.15;51.67;;;;;;;;;;2122669;28;20055;-50
2022/01/26 04:52:01;;;;;;;99.75;40.08;;;;;;;;;;2116868;27;20069;-52
2022/01/26 04:53:02;;;;;;;103.85;50.47;;;;;;;;;;2122702;28;20517;-49
2022/01/26 04:54:03;;;;;;;104.15;44.20;;;;;;;;;;2122661;28;20478;-49
2022/01/26 04:55:05;;;;;;;90.83;40.17;;;;;;;;;;2120604;27;20047;-52
2022/01/26 04:56:06;;;;;;;112.30;51.85;;;;;;;;;;2122644;28;20058;-49
2022/01/26 04:57:07;;;;;;;109.13;43.47;;;;;;;;;;2123661;27;20043;-51
2022/01/26 04:58:08;;;;;;;107.93;51.45;;;;;;;;;;2119090;28;20043;-50
2022/01/26 04:59:09;;;;;;;97.03;43.25;;;;;;;;;;2122672;28;20467;-49
2022/01/26 05:00:12;;;;;;;100.25;41.95;;;;;;;;;;2120073;27;20567;-49
2022/01/26 05:01:13;;;;;;;101.45;41.58;;;;;;;;;;2117150;28;20079;-50
2022/01/26 05:02:14;;;;;;;103.82;47.60;;;;;;;;;;2114207;28;20062;-50
2022/01/26 05:03:16;;;;;;;92.53;41.72;;;;;;;;;;2117177;27;20135;-50
2022/01/26 05:04:17;;;;;;;94.88;39.10;;;;;;;;;;2122035;28;20110;-50
2022/01/26 05:05:18;;;;;;;102.97;50.83;;;;;;;;;;2122680;28;20514;-50
2022/01/26 05:06:19;;;;;;;97.90;43.33;;;;;;;;;;2119391;27;20295;-49
2022/01/26 05:07:20;;;;;;;96.70;40.83;;;;;;;;;;2122688;28;20047;-51
2022/01/26 05:08:21;;;;;;;106.90;49.30;;;;;;;;;;2122847;27;20066;-50
2022/01/26 05:09:23;;;;;;;85.50;39.83;;;;;;;;;;2119164;27;20066;-50
2022/01/26 05:10:24;;;;;;;104.72;48.75;;;;;;;;;;2122769;28;20051;-50
2022/01/26 05:11:32;;;;;;;98.88;47.63;;;;;;;;;;2122031;27;20118;-50
2022/01/26 05:12:35;;;;;;;92.32;41.58;;;;;;;;;;2114949;28;20075;-50
2022/01/26 05:13:36;;;;;;;112.80;52.25;;;;;;;;;;2114134;28;20543;-49
2022/01/26 05:14:40;;;;;;;81.97;37.67;;;;;;;;;;2118060;27;20118;-50
2022/01/26 05:15:41;;;;;;;99.28;46.95;;;;;;;;;;2114112;28;20100;-50
2022/01/26 05:16:43;;;;;;;97.82;47.35;;;;;;;;;;2114071;28;20046;-51
2022/01/26 05:17:44;;;;;;;113.13;50.95;;;;;;;;;;2116193;27;20075;-50
2022/01/26 05:18:45;;;;;;;98.40;43.60;;;;;;;;;;2122756;28;20104;-49
2022/01/26 05:19:46;;;;;;;103.07;48.45;;;;;;;;;;2123731;27;20071;-50
2022/01/26 05:20:47;;;;;;;99.57;40.25;;;;;;;;;;2119989;27;20122;-50
2022/01/26 05:21:48;;;;;;;104.95;48.58;;;;;;;;;;2124157;28;20058;-49
2022/01/26 05:22:49;;;;;;;101.88;45.78;;;;;;;;;;2124240;27;20077;-49
2022/01/26 05:23:50;;;;;;;99.68;49.08;;;;;;;;;;2116499;28;20048;-50
2022/01/26 05:24:52;;;;;;;88.80;38.80;;;;;;;;;;2115558;28;20046;-51
2022/01/26 05:25:53;;;;;;;;;;;;;;;;;;2121114;27;20055;-52
2022/01/26 05:26:54;;;;;;;97.35;39.15;;;;;;;;;;2123369;28;19920;-53
2022/01/26 05:27:56;;;;;;;95.57;40.42;;;;;;;;;;2124005;28;20533;-50
2022/01/26 05:28:57;;;;;;;116.18;48.58;;;;;;;;;;2119496;27;20071;-52
2022/01/26 05:29:58;;;;;;;103.68;46.38;;;;;;;;;;2123987;28;20529;-50
2022/01/26 05:31:00;;;;;;;97.90;42.67;;;;;;;;;;2123325;27;20085;-50
2022/01/26 05:32:01;;;;;;;104.30;41.28;;;;;;;;;;2119047;28;20043;-52
2022/01/26 05:33:02;;;;;;;108.15;50.15;;;;;;;;;;2124197;28;20046;-49
2022/01/26 05:34:03;;;;;;;90.88;37.92;;;;;;;;;;2123841;27;20488;-50
2022/01/26 05:35:05;;;;;;;100.10;40.80;;;;;;;;;;2121081;28;20039;-49
2022/01/26 05:36:06;;;;;;;108.35;53.05;;;;;;;;;;2123954;28;20126;-50
2022/01/26 05:37:07;;;;;;;92.20;39.10;;;;;;;;;;2122198;27;20126;-50
2022/01/26 05:38:08;;;;;;;98.50;40.10;;;;;;;;;;2116154;28;20405;-50
2022/01/26 05:39:09;;;;;;;101.32;46.88;;;;;;;;;;2115501;28;20130;-49
2022/01/26 05:40:11;;;;;;;93.93;39.58;;;;;;;;;;2118636;27;20267;-49
2022/01/26 05:41:13;;;;;;;109.18;50.45;;;;;;;;;;2123818;28;20488;-51
2022/01/26 05:42:15;;;;;;;94.57;37.35;;;;;;;;;;2124080;28;20100;-50
2022/01/26 05:43:16;;;;;;;;;;;;;;;;;;2121275;27;20105;-49
2022/01/26 05:44:18;;;;;;;81.82;35.05;;;;;;;;;;2123994;28;19919;-51
2022/01/26 05:45:26;;;;;;;83.53;36.58;;;;;;;;;;2124298;27;20051;-53
2022/01/26 05:46:33;;;;;;;105.10;47.95;;;;;;;;;;2121665;28;20075;-52
2022/01/26 05:47:35;;;;;;;91.88;41.05;;;;;;;;;;2123988;28;20496;-50
2022/01/26 05:48:42;;;;;;;94.20;40.13;;;;;;;;;;2117486;27;20176;-50
2022/01/26 05:49:43;;;;;;;97.88;44.90;;;;;;;;;;2115493;28;20521;-49
2022/01/26 05:50:49;;;;;;;98.53;38.37;;;;;;;;;;2115241;28;20044;-49
2022/01/26 05:51:50;;;;;;;100.45;44.50;;;;;;;;;;2120180;28;20110;-50
2022/01/26 05:52:51;;;;;;;90.93;39.17;;;;;;;;;;2123839;28;20071;-51
2022/01/26 05:53:52;;;;;;;101.40;39.58;;;;;;;;;;2121044;27;20511;-50
2022/01/26 05:54:53;;;;;;;102.63;46.72;;;;;;;;;;2120931;28;20138;-49
2022/01/26 05:55:55;;;;;;;78.25;35.28;;;;;;;;;;2123840;28;20075;-49
2022/01/26 05:56:56;;;;;;;90.93;38.05;;;;;;;;;;2121855;27;20149;-50
2022/01/26 05:57:57;;;;;;;101.25;46.08;;;;;;;;;;2122636;28;20062;-50
2022/01/26 05:58:58;;;;;;;102.72;39.28;;;;;;;;;;2123807;28;20142;-50
2022/01/26 06:00:00;;;;;;;87.53;39.05;;;;;;;;;;2120924;27;20045;-50
2022/01/26 06:01:01;;;;;;;93.22;36.75;;;;;;;;;;2115157;28;20055;-50
2022/01/26 06:02:04;;;;;;;99.68;46.58;;;;;;;;;;2115293;28;20427;-53
2022/01/26 06:03:05;;;;;;;83.50;36.97;;;;;;;;;;2118251;27;20131;-49
2022/01/26 06:04:07;;;;;;;77.05;32.97;;;;;;;;;;2115210;28;20526;-50
2022/01/26 06:05:08;;;;;;;86.88;36.88;;;;;;;;;;2115940;27;20051;-50
2022/01/26 06:06:10;;;;;;;91.38;45.28;;;;;;;;;;2120409;28;20373;-51
2022/01/26 06:07:11;;;;;;;95.45;38.47;;;;;;;;;;2123779;28;20075;-53
2022/01/26 06:08:12;;;;;;;95.50;44.13;;;;;;;;;;2122235;27;20049;-49
2022/01/26 06:09:13;;;;;;;88.43;37.88;;;;;;;;;;2122216;28;20507;-52
2022/01/26 06:10:14;;;;;;;93.25;43.97;;;;;;;;;;2123820;28;20054;-49
2022/01/26 06:11:15;;;;;;;81.60;33.35;;;;;;;;;;2121751;27;20490;-50
2022/01/26 06:12:16;;;;;;;82.83;41.97;;;;;;;;;;2115906;28;20127;-49
2022/01/26 06:13:17;;;;;;;80.03;31.60;;;;;;;;;;2115173;28;20091;-51
2022/01/26 06:14:18;;;;;;;86.35;37.30;;;;;;;;;;2117943;27;20508;-51
2022/01/26 06:15:20;;;;;;;80.30;37.42;;;;;;;;;;2115122;28;20092;-49
2022/01/26 06:16:21;;;;;;;63.83;30.77;;;;;;;;;;2115278;27;20075;-51
2022/01/26 06:17:22;;;;;;;76.57;34.67;;;;;;;;;;2122100;28;20541;-51
2022/01/26 06:18:23;;;;;;;84.93;39.67;;;;;;;;;;2123853;28;20047;-49
2022/01/26 06:19:24;;;;;;;82.97;38.60;;;;;;;;;;2120596;27;20047;-49
2022/01/26 06:20:25;;;;;;;77.68;33.28;;;;;;;;;;2122380;28;20582;-48
2022/01/26 06:21:26;;;;;;;76.88;36.85;;;;;;;;;;2123542;28;20047;-47
2022/01/26 06:22:29;;;;;;;73.93;31.58;;;;;;;;;;2121602;27;20074;-47
2022/01/26 06:23:30;;;;;;;84.22;41.60;;;;;;;;;;2123806;28;20061;-46
2022/01/26 06:24:31;;;;;;;78.68;34.60;;;;;;;;;;2123533;28;20074;-47
2022/01/26 06:25:33;;;;;;;76.13;34.10;;;;;;;;;;2115875;28;20114;-51
2022/01/26 06:26:34;;;;;;;79.43;34.75;;;;;;;;;;2115223;28;20079;-47
2022/01/26 06:27:35;;;;;;;78.75;39.22;;;;;;;;;;2116174;27;20436;-47
2022/01/26 06:28:37;;;;;;;82.03;33.92;;;;;;;;;;2115650;28;20131;-47
2022/01/26 06:29:38;;;;;;;76.35;36.42;;;;;;;;;;2115225;28;20738;-46
2022/01/26 06:30:44;;;;;;;76.20;35.17;;;;;;;;;;2117126;27;20046;-47
2022/01/26 06:31:45;;;;;;;85.05;37.38;;;;;;;;;;2120284;28;20516;-47
2022/01/26 06:32:47;;;;;;;74.72;32.55;;;;;;;;;;2123639;28;20047;-48
2022/01/26 06:33:53;;;;;;;75.65;36.90;;;;;;;;;;2118287;27;20062;-47
2022/01/26 06:34:54;;;;;;;87.38;41.20;;;;;;;;;;2123585;28;20492;-47
2022/01/26 06:35:57;;;;;;;77.45;36.97;;;;;;;;;;2123694;27;20039;-48
2022/01/26 06:36:58;;;;;;;82.03;38.95;;;;;;;;;;2116901;27;20126;-46
2022/01/26 06:37:59;;;;;;;73.33;30.53;;;;;;;;;;2115325;28;20051;-47
2022/01/26 06:39:00;;;;;;;76.93;34.80;;;;;;;;;;2117034;27;20078;-47
2022/01/26 06:40:02;;;;;;;76.03;32.63;;;;;;;;;;2121264;28;20195;-47
2022/01/26 06:41:06;;;;;;;79.97;39.35;;;;;;;;;;2123559;28;20134;-47
2022/01/26 06:42:12;;;;;;;68.18;30.75;;;;;;;;;;2121427;27;20130;-48
2022/01/26 06:43:15;;;;;;;85.65;40.05;;;;;;;;;;2114970;28;20457;-49
2022/01/26 06:44:21;;;;;;;80.90;39.72;;;;;;;;;;2114965;28;20130;-51
2022/01/26 06:45:25;;;;;;;78.00;32.97;;;;;;;;;;2121140;27;20039;-47
2022/01/26 06:46:33;;;;;;;79.38;35.50;;;;;;;;;;2123447;28;20136;-50
2022/01/26 06:47:50;;;;;;;79.28;39.00;;;;;;;;;;2122384;27;20445;-46
2022/01/26 06:49:28;;;;;;;80.63;31.98;;;;;;;;;;2114997;28;20135;-49
2022/01/26 06:50:24;;;;;;;79.88;34.55;;;;;;;;;;2118055;27;20547;-50
2022/01/26 06:51:25;;;;;;;84.53;33.15;;;;;;;;;;2121663;28;20074;-47
2022/01/26 06:52:26;;;;;;;86.00;38.17;;;;;;;;;;2123414;28;20119;-47
2022/01/26 06:53:28;;;;;;;77.82;37.22;;;;;;;;;;2121228;27;20499;-47
2022/01/26 06:54:29;;;;;;;84.93;36.70;;;;;;;;;;2122756;28;20126;-47
2022/01/26 06:55:30;;;;;;;91.88;44.00;;;;;;;;;;2123450;28;20126;-49
2022/01/26 06:56:31;;;;;;;80.50;33.40;;;;;;;;;;2120233;27;20047;-46
2022/01/26 06:57:32;;;;;;;82.13;34.43;;;;;;;;;;2123590;28;20043;-47
2022/01/26 06:58:33;;;;;;;92.72;39.35;;;;;;;;;;2122895;27;20074;-48
2022/01/26 06:59:34;;;;;;;61.92;30.77;;;;;;;;;;2115768;28;20134;-48
2022/01/26 07:00:35;;;;;;;89.15;41.65;;;;;;;;;;2114842;28;20497;-47
2022/01/26 07:01:38;;;;;;;84.75;37.63;;;;;;;;;;2116908;27;20046;-47
2022/01/26 07:02:39;;;;;;;;;;;;;;;;;;2121085;28;20557;-47
2022/01/26 07:03:40;;;;;;;62.05;29.40;;;;;;;;;;2123421;28;19942;-46
2022/01/26 07:04:42;;;;;;;88.82;34.88;;;;;;;;;;2122436;27;20507;-48
2022/01/26 07:05:43;;;;;;;74.55;35.03;;;;;;;;;;2122113;28;20125;-47
2022/01/26 07:06:44;;;;;;;82.60;40.30;;;;;;;;;;2123358;28;20162;-47
2022/01/26 07:07:45;;;;;;;81.15;33.95;;;;;;;;;;2120240;27;20047;-47
2022/01/26 07:08:46;;;;;;;83.72;38.08;;;;;;;;;;2123449;28;20047;-48